Time;durP1;ratioP1;P1;durP2;ratioP2;P2;SDS_P1;SDS_P2;PMS_P1;PMS_P2;Temp;Humidity;BMP_temperature;BMP_pressure;BME280_temperature;BME280_humidity;BME280_pressure;Samples;Min_cycle;Max_cycle;Signal;HPM_P1;HPM_P2
2022/04/25 00:02:20;;;;;;;2.70;2.60;;;19.20;44.00;;;;;;5059107;28;20717;-56
2022/04/25 00:04:45;;;;;;;2.47;2.37;;;19.20;44.00;;;;;;5065443;28;20229;-56
2022/04/25 00:07:11;;;;;;;2.30;2.20;;;19.20;44.00;;;;;;5062276;28;20320;-56
2022/04/25 00:09:36;;;;;;;2.40;2.30;;;19.20;44.00;;;;;;5060981;28;20267;-56
2022/04/25 00:12:02;;;;;;;2.40;2.30;;;19.20;44.00;;;;;;5057913;28;20279;-59
2022/04/25 00:14:28;;;;;;;2.20;2.10;;;19.20;44.00;;;;;;5061951;28;20302;-58
2022/04/25 00:16:56;;;;;;;2.87;2.67;;;19.20;43.90;;;;;;5056101;28;20906;-57
2022/04/25 00:19:23;;;;;;;2.20;2.10;;;19.20;44.00;;;;;;5058359;28;20222;-56
2022/04/25 00:21:48;;;;;;;2.77;2.67;;;19.20;44.00;;;;;;5063612;28;20462;-57
2022/04/25 00:24:14;;;;;;;2.50;2.40;;;19.20;44.00;;;;;;5065914;28;20537;-56
2022/04/25 00:26:39;;;;;;;2.10;2.00;;;19.20;43.90;;;;;;5061145;28;20740;-57
2022/04/25 00:29:05;;;;;;;2.30;2.10;;;19.20;44.00;;;;;;5065169;28;20694;-56
2022/04/25 00:31:30;;;;;;;2.33;2.23;;;19.20;44.00;;;;;;5047358;28;20580;-57
2022/04/25 00:33:56;;;;;;;2.60;2.40;;;19.20;44.00;;;;;;5058847;28;20223;-56
2022/04/25 00:36:21;;;;;;;2.60;2.50;;;19.20;44.00;;;;;;5059747;28;20279;-56
2022/04/25 00:38:47;;;;;;;2.60;2.50;;;19.20;44.00;;;;;;5060432;28;20210;-56
2022/04/25 00:41:13;;;;;;;2.20;2.10;;;19.20;43.90;;;;;;5056642;28;20244;-56
2022/04/25 00:43:38;;;;;;;2.50;2.40;;;19.20;43.90;;;;;;5063407;28;20213;-57
2022/04/25 00:46:04;;;;;;;2.70;2.50;;;19.20;44.00;;;;;;5060969;28;20713;-56
2022/04/25 00:48:30;;;;;;;2.20;2.10;;;19.20;44.00;;;;;;5060303;28;20248;-56
2022/04/25 00:50:56;;;;;;;2.20;2.10;;;19.20;44.00;;;;;;5060527;28;20413;-55
2022/04/25 00:53:21;;;;;;;2.20;2.10;;;19.20;43.90;;;;;;5059007;28;21034;-57
2022/04/25 00:55:48;;;;;;;2.33;2.23;;;19.20;44.00;;;;;;5059522;28;20251;-57
2022/04/25 00:58:14;;;;;;;2.17;2.07;;;19.20;44.00;;;;;;5059457;28;20228;-56
2022/04/25 01:00:40;;;;;;;2.30;2.20;;;19.20;44.00;;;;;;5059956;28;20413;-56
2022/04/25 01:03:06;;;;;;;2.30;2.20;;;19.20;43.90;;;;;;5064510;28;20454;-56
2022/04/25 01:05:31;;;;;;;2.30;2.20;;;19.20;44.00;;;;;;5063223;28;20234;-56
2022/04/25 01:07:59;;;;;;;2.47;2.27;;;19.20;44.00;;;;;;5060658;28;20233;-56
2022/04/25 01:10:24;;;;;;;2.20;2.10;;;19.20;44.00;;;;;;5058017;28;20942;-56
2022/04/25 01:12:50;;;;;;;2.17;2.07;;;19.20;43.90;;;;;;5061517;28;20473;-56
2022/04/25 01:15:16;;;;;;;2.10;2.00;;;19.20;44.00;;;;;;5059045;28;20218;-58
2022/04/25 01:17:42;;;;;;;2.40;2.30;;;19.20;44.00;;;;;;5058923;28;20308;-57
2022/04/25 01:20:09;;;;;;;2.20;2.10;;;19.20;43.90;;;;;;5049664;28;20590;-57
2022/04/25 01:22:39;;;;;;;2.20;2.10;;;19.20;44.00;;;;;;5063790;28;20218;-56
2022/04/25 01:27:49;;;;;;;2.27;2.10;;;19.20;44.00;;;;;;5062022;28;20474;-58
2022/04/25 01:30:15;;;;;;;2.07;1.97;;;19.20;44.00;;;;;;5063864;28;20447;-56
2022/04/25 01:32:40;;;;;;;2.20;2.10;;;19.20;44.00;;;;;;5056370;28;20665;-56
2022/04/25 01:35:07;;;;;;;2.00;1.90;;;19.20;44.00;;;;;;5065037;28;20336;-57
2022/04/25 01:37:32;;;;;;;2.50;2.30;;;19.20;44.00;;;;;;5062624;28;20257;-58
2022/04/25 01:39:58;;;;;;;2.20;2.10;;;19.20;44.00;;;;;;5062105;28;20457;-56
2022/04/25 01:42:25;;;;;;;2.10;2.00;;;19.20;44.00;;;;;;5062905;28;20618;-56
2022/04/25 01:44:51;;;;;;;2.30;2.20;;;19.20;44.00;;;;;;5061706;28;20314;-56
2022/04/25 01:47:18;;;;;;;2.27;2.17;;;19.20;44.00;;;;;;5061731;28;20437;-58
2022/04/25 01:49:44;;;;;;;2.10;2.00;;;19.20;43.90;;;;;;5065896;28;20457;-58
2022/04/25 01:52:20;;;;;;;2.00;1.90;;;19.20;44.00;;;;;;5061906;28;20452;-58
2022/04/25 01:54:47;;;;;;;2.10;2.00;;;19.20;44.00;;;;;;5060787;28;20274;-55
2022/04/25 01:57:12;;;;;;;2.03;1.93;;;19.20;44.00;;;;;;5065939;28;20458;-56
2022/04/25 01:59:39;;;;;;;2.10;2.00;;;19.20;44.00;;;;;;5045290;28;20458;-58
2022/04/25 02:02:05;;;;;;;1.90;1.80;;;19.20;43.90;;;;;;5064176;28;20239;-58
2022/04/25 02:04:31;;;;;;;2.03;1.93;;;19.20;44.00;;;;;;5060152;28;20475;-56
2022/04/25 02:06:57;;;;;;;2.37;2.27;;;19.20;44.00;;;;;;5064268;28;20337;-57
2022/04/25 02:09:23;;;;;;;2.23;2.13;;;19.20;44.00;;;;;;5063374;28;20237;-56
2022/04/25 02:11:49;;;;;;;2.07;1.97;;;19.20;44.00;;;;;;5043633;28;20828;-56
2022/04/25 02:14:15;;;;;;;2.20;2.10;;;19.20;44.00;;;;;;5062301;28;20906;-56
2022/04/25 02:16:41;;;;;;;1.80;1.70;;;19.20;43.90;;;;;;5057018;28;20454;-55
2022/04/25 02:19:06;;;;;;;2.20;2.10;;;19.20;44.00;;;;;;5067633;28;20227;-56
2022/04/25 02:21:32;;;;;;;2.03;1.93;;;19.20;44.00;;;;;;5067673;28;20616;-58
2022/04/25 02:23:58;;;;;;;2.37;2.20;;;19.20;44.00;;;;;;5064247;28;21455;-57
2022/04/25 02:26:24;;;;;;;2.30;2.20;;;19.20;44.00;;;;;;5061242;28;20241;-56
2022/04/25 02:28:50;;;;;;;2.10;2.00;;;19.20;44.00;;;;;;5065474;28;20220;-56
2022/04/25 02:31:15;;;;;;;2.83;2.73;;;19.20;44.00;;;;;;5057666;28;20780;-56
2022/04/25 02:33:41;;;;;;;2.40;2.30;;;19.20;43.90;;;;;;5066008;28;20224;-56
2022/04/25 02:36:08;;;;;;;2.27;2.10;;;19.20;44.00;;;;;;5066654;28;20233;-56
2022/04/25 02:38:36;;;;;;;2.27;2.17;;;19.20;43.90;;;;;;5059179;28;20218;-56
2022/04/25 02:41:05;;;;;;;2.23;2.13;;;19.20;43.90;;;;;;5059310;28;20705;-56
2022/04/25 02:43:32;;;;;;;2.23;2.13;;;19.20;44.00;;;;;;5063157;28;20837;-56
2022/04/25 02:45:58;;;;;;;1.90;1.80;;;19.20;44.00;;;;;;5061865;28;20435;-59
2022/04/25 02:48:24;;;;;;;1.90;1.80;;;19.20;43.90;;;;;;5060930;28;20479;-57
2022/04/25 02:50:50;;;;;;;1.80;1.70;;;19.20;44.00;;;;;;5064366;28;20221;-56
2022/04/25 02:53:15;;;;;;;2.87;2.67;;;19.20;44.00;;;;;;5059584;28;20222;-56
2022/04/25 02:55:41;;;;;;;1.87;1.77;;;19.20;44.00;;;;;;5057743;28;20219;-56
2022/04/25 02:58:08;;;;;;;2.20;2.10;;;19.20;44.00;;;;;;5043506;28;20236;-56
2022/04/25 03:00:34;;;;;;;2.13;2.03;;;19.20;44.00;;;;;;5061716;28;20222;-56
2022/04/25 03:03:00;;;;;;;2.10;2.00;;;19.20;44.00;;;;;;5058668;28;20500;-56
2022/04/25 03:05:25;;;;;;;1.90;1.80;;;19.20;43.90;;;;;;5067192;28;20218;-56
2022/04/25 03:07:51;;;;;;;1.93;1.83;;;19.20;44.00;;;;;;5056889;28;20325;-58
2022/04/25 03:10:17;;;;;;;2.10;2.00;;;19.20;43.90;;;;;;5064725;28;20241;-56
2022/04/25 03:12:42;;;;;;;2.07;1.97;;;19.20;44.00;;;;;;5062740;28;20706;-56
2022/04/25 03:15:08;;;;;;;2.30;2.20;;;19.20;44.00;;;;;;5065606;28;20221;-56
2022/04/25 03:17:34;;;;;;;2.00;1.90;;;19.20;44.00;;;;;;5061773;28;20214;-59
2022/04/25 03:19:59;;;;;;;2.30;2.20;;;19.20;44.00;;;;;;5065647;28;20214;-56
2022/04/25 03:22:26;;;;;;;1.90;1.80;;;19.20;44.00;;;;;;5060434;28;20593;-56
2022/04/25 03:24:51;;;;;;;2.10;2.00;;;19.10;43.90;;;;;;5060838;28;20217;-56
2022/04/25 03:27:17;;;;;;;2.00;1.90;;;19.20;44.70;;;;;;5062777;28;20462;-58
2022/04/25 03:29:42;;;;;;;2.37;2.27;;;19.20;44.00;;;;;;5057408;28;20253;-57
2022/04/25 03:32:08;;;;;;;2.20;2.10;;;19.20;44.00;;;;;;5058766;28;20584;-59
2022/04/25 03:34:37;;;;;;;2.13;2.03;;;19.20;44.00;;;;;;5062822;28;20266;-56
2022/04/25 03:37:03;;;;;;;1.87;1.77;;;19.20;44.00;;;;;;5061724;28;20218;-57
2022/04/25 03:39:29;;;;;;;2.00;1.90;;;19.20;44.00;;;;;;5059127;28;20454;-56
2022/04/25 03:41:55;;;;;;;2.00;1.90;;;19.20;44.00;;;;;;5060520;28;20455;-56
2022/04/25 03:44:21;;;;;;;1.90;1.80;;;19.20;44.00;;;;;;5060954;28;20218;-56
2022/04/25 03:46:46;;;;;;;4.33;1.70;;;19.20;44.00;;;;;;5040309;28;20433;-56
2022/04/25 03:49:13;;;;;;;2.30;2.10;;;19.20;44.00;;;;;;5064946;28;20347;-58
2022/04/25 03:51:39;;;;;;;2.20;2.10;;;19.20;44.00;;;;;;5064138;28;20210;-56
2022/04/25 03:54:05;;;;;;;2.17;2.07;;;19.20;44.00;;;;;;5046326;28;20418;-56
2022/04/25 03:59:15;;;;;;;2.00;1.90;;;19.20;44.00;;;;;;5066568;28;20232;-57
2022/04/25 04:01:41;;;;;;;2.07;1.97;;;19.20;44.00;;;;;;5056014;28;20435;-56
2022/04/25 04:04:06;;;;;;;2.20;2.10;;;19.20;44.00;;;;;;5061263;28;20222;-55
2022/04/25 04:06:32;;;;;;;2.17;2.07;;;19.20;44.00;;;;;;5056749;28;20462;-57
2022/04/25 04:08:58;;;;;;;1.90;1.80;;;19.20;44.00;;;;;;5055270;28;20697;-56
2022/04/25 04:11:46;;;;;;;2.30;2.17;;;19.20;43.90;;;;;;5065007;28;20485;-57
2022/04/25 04:14:10;;;;;;;2.10;2.00;;;19.20;44.00;;;;;;5063212;28;20453;-56
2022/04/25 04:16:35;;;;;;;2.00;1.90;;;19.20;44.00;;;;;;5058096;28;20425;-56
2022/04/25 04:19:01;;;;;;;2.00;1.90;;;19.20;44.00;;;;;;5059590;28;20368;-56
2022/04/25 04:21:26;;;;;;;2.13;2.03;;;19.20;43.90;;;;;;5058296;28;20692;-57
2022/04/25 04:23:52;;;;;;;2.17;2.07;;;19.20;44.00;;;;;;5057802;28;20226;-58
2022/04/25 04:26:17;;;;;;;2.10;2.00;;;19.20;44.00;;;;;;5048379;28;20226;-56
2022/04/25 04:28:43;;;;;;;2.00;1.90;;;19.20;44.00;;;;;;5055466;28;20261;-57
2022/04/25 04:31:09;;;;;;;2.30;2.20;;;19.20;43.90;;;;;;5058903;28;20689;-57
2022/04/25 04:33:34;;;;;;;2.10;2.00;;;19.20;44.00;;;;;;5065388;28;20287;-56
2022/04/25 04:36:18;;;;;;;2.20;2.10;;;19.20;44.00;;;;;;5063193;28;20229;-56
2022/04/25 04:38:44;;;;;;;2.63;2.53;;;19.20;44.00;;;;;;5055426;28;20245;-57
2022/04/25 04:41:10;;;;;;;2.00;1.90;;;19.20;44.00;;;;;;5060411;28;20782;-55
2022/04/25 04:43:36;;;;;;;2.17;2.07;;;19.20;44.00;;;;;;5059549;28;20952;-56
2022/04/25 04:46:01;;;;;;;2.23;2.13;;;19.30;44.10;;;;;;5055134;28;20231;-56
2022/04/25 04:48:27;;;;;;;2.00;1.90;;;19.30;44.10;;;;;;5062911;28;20221;-58
2022/04/25 04:50:55;;;;;;;1.73;1.63;;;19.30;44.10;;;;;;5063502;28;20229;-56
2022/04/25 04:53:22;;;;;;;2.10;2.00;;;19.30;44.10;;;;;;5059786;28;20210;-56
2022/04/25 04:55:48;;;;;;;2.23;2.13;;;19.40;44.20;;;;;;5062493;28;20457;-56
2022/04/25 04:58:13;;;;;;;2.00;1.90;;;19.40;44.10;;;;;;5059582;28;20454;-59
2022/04/25 05:00:43;;;;;;;2.00;1.90;;;19.40;44.20;;;;;;5061695;28;20435;-56
2022/04/25 05:03:08;;;;;;;2.10;2.00;;;19.40;44.20;;;;;;5061301;28;20241;-55
2022/04/25 05:05:34;;;;;;;2.10;2.00;;;19.40;44.20;;;;;;5055675;28;20502;-56
2022/04/25 05:08:02;;;;;;;2.20;2.10;;;19.40;44.20;;;;;;5056071;28;20244;-56
2022/04/25 05:10:27;;;;;;;2.10;2.00;;;19.40;44.10;;;;;;5063140;28;20472;-56
2022/04/25 05:12:54;;;;;;;1.97;1.87;;;19.40;44.20;;;;;;5057720;28;20520;-56
2022/04/25 05:15:20;;;;;;;2.17;2.07;;;19.40;44.10;;;;;;5060121;28;20276;-56
2022/04/25 05:17:48;;;;;;;2.23;2.10;;;19.40;44.20;;;;;;5057767;28;20847;-57
2022/04/25 05:20:14;;;;;;;2.10;2.00;;;19.40;44.20;;;;;;5063889;28;20460;-57
2022/04/25 05:22:44;;;;;;;2.03;1.93;;;19.40;44.20;;;;;;5055117;28;20483;-58
2022/04/25 05:25:14;;;;;;;2.13;2.03;;;19.40;44.90;;;;;;5061820;28;20443;-57
2022/04/25 05:27:41;;;;;;;1.90;1.80;;;19.40;44.20;;;;;;5059697;28;20464;-57
2022/04/25 05:30:07;;;;;;;1.90;1.80;;;19.40;44.20;;;;;;5057679;28;20427;-57
2022/04/25 05:32:42;;;;;;;2.00;1.90;;;19.40;44.20;;;;;;5058698;28;21007;-56
2022/04/25 05:35:08;;;;;;;2.00;1.90;;;19.40;44.20;;;;;;5059142;28;20461;-58
2022/04/25 05:37:33;;;;;;;2.20;2.10;;;19.40;44.10;;;;;;5063252;28;20482;-56
2022/04/25 05:39:59;;;;;;;1.73;1.63;;;19.40;44.20;;;;;;5055328;28;20498;-56
2022/04/25 05:42:25;;;;;;;2.10;2.00;;;19.40;44.10;;;;;;5059758;28;20222;-56
2022/04/25 05:44:50;;;;;;;1.80;1.70;;;19.40;44.20;;;;;;5056471;28;20335;-55
2022/04/25 05:47:16;;;;;;;2.40;1.90;;;19.40;44.20;;;;;;5056875;28;20575;-56
2022/04/25 05:52:25;;;;;;;1.70;1.60;;;19.40;44.20;;;;;;5052362;28;20721;-55
2022/04/25 05:54:51;;;;;;;2.03;1.93;;;19.40;44.20;;;;;;5059441;28;20458;-56
2022/04/25 05:57:16;;;;;;;2.03;1.93;;;19.40;44.20;;;;;;5062186;28;20709;-56
2022/04/25 05:59:42;;;;;;;1.90;1.80;;;19.40;44.20;;;;;;5062275;28;20705;-57
2022/04/25 06:02:08;;;;;;;1.80;1.70;;;19.40;44.20;;;;;;5064609;28;20326;-56
2022/04/25 06:04:33;;;;;;;1.97;1.87;;;19.40;44.20;;;;;;5063487;28;20263;-56
2022/04/25 06:06:59;;;;;;;1.93;1.83;;;19.40;44.10;;;;;;5061625;28;20239;-57
2022/04/25 06:09:26;;;;;;;1.80;1.70;;;19.40;44.20;;;;;;5064153;28;20245;-56
2022/04/25 06:11:52;;;;;;;1.80;1.70;;;19.40;44.20;;;;;;5067665;28;20283;-58
2022/04/25 06:14:18;;;;;;;2.00;1.90;;;19.40;44.20;;;;;;5063445;28;20529;-57
2022/04/25 06:16:44;;;;;;;1.97;1.87;;;19.40;44.20;;;;;;5063944;28;20894;-58
2022/04/25 06:19:10;;;;;;;2.20;2.10;;;19.40;44.20;;;;;;5060617;28;20237;-56
2022/04/25 06:21:35;;;;;;;2.20;2.10;;;19.40;44.20;;;;;;5064386;28;20217;-56
2022/04/25 06:24:01;;;;;;;1.90;1.80;;;19.40;44.20;;;;;;5064556;28;20805;-56
2022/04/25 06:26:29;;;;;;;1.67;1.57;;;19.40;44.10;;;;;;5070271;28;20237;-56
2022/04/25 06:28:55;;;;;;;1.90;1.80;;;19.40;44.20;;;;;;5061264;28;20250;-55
2022/04/25 06:31:22;;;;;;;1.90;1.80;;;19.40;44.20;;;;;;5061711;28;20967;-57
2022/04/25 06:33:48;;;;;;;2.00;1.90;;;19.40;44.20;;;;;;5065166;28;20217;-57
2022/04/25 06:36:14;;;;;;;2.20;2.10;;;19.40;44.10;;;;;;5060973;28;20477;-56
2022/04/25 06:38:39;;;;;;;1.93;1.83;;;19.40;44.20;;;;;;5063660;28;20305;-58
2022/04/25 06:41:07;;;;;;;1.80;1.70;;;19.40;44.20;;;;;;5066373;28;20275;-55
2022/04/25 06:43:32;;;;;;;1.97;1.87;;;19.40;44.10;;;;;;5061953;28;20225;-56
2022/04/25 06:45:58;;;;;;;2.00;1.90;;;19.40;44.20;;;;;;5064624;28;20451;-58
2022/04/25 06:48:24;;;;;;;2.03;1.93;;;19.40;44.20;;;;;;5065332;28;20241;-57
2022/04/25 06:50:50;;;;;;;1.90;1.80;;;19.40;44.10;;;;;;5064227;28;20622;-55
2022/04/25 06:53:16;;;;;;;2.10;2.00;;;19.40;44.20;;;;;;5059627;28;20241;-58
2022/04/25 06:55:41;;;;;;;1.80;1.70;;;19.40;44.20;;;;;;5066513;28;20481;-56
2022/04/25 06:58:07;;;;;;;2.33;1.60;;;19.40;44.20;;;;;;5060665;28;20592;-56
2022/04/25 07:00:33;;;;;;;2.00;1.90;;;19.40;44.20;;;;;;5057826;28;20229;-56
2022/04/25 07:02:59;;;;;;;2.03;1.93;;;19.40;44.10;;;;;;5064007;28;20295;-56
2022/04/25 07:05:24;;;;;;;1.87;1.77;;;19.40;44.20;;;;;;5065174;28;20858;-58
2022/04/25 07:07:51;;;;;;;1.80;1.70;;;19.40;44.20;;;;;;5064515;28;20449;-56
2022/04/25 07:10:17;;;;;;;1.83;1.73;;;19.40;44.10;;;;;;5067001;28;20238;-56
2022/04/25 07:12:42;;;;;;;2.00;1.90;;;19.40;44.20;;;;;;5059286;28;20846;-56
2022/04/25 07:15:08;;;;;;;2.83;2.50;;;19.40;44.20;;;;;;5061436;28;20232;-57
2022/04/25 07:17:34;;;;;;;2.00;1.90;;;19.40;44.20;;;;;;5062764;28;20861;-57
2022/04/25 07:20:00;;;;;;;1.93;1.83;;;19.40;44.10;;;;;;5059048;28;20512;-55
2022/04/25 07:30:38;;;;;;;2.07;1.83;;;19.40;44.20;;;;;;5061052;28;20520;-56
2022/04/25 07:33:04;;;;;;;2.27;2.17;;;19.40;44.20;;;;;;5064112;28;20459;-56
2022/04/25 07:35:30;;;;;;;2.90;1.93;;;19.40;44.20;;;;;;5060154;28;21246;-55
2022/04/25 07:37:56;;;;;;;1.80;1.70;;;19.40;44.10;;;;;;5059966;28;20679;-56
2022/04/25 07:40:22;;;;;;;2.00;1.90;;;19.40;44.20;;;;;;5059933;28;20233;-56
2022/04/25 07:42:48;;;;;;;1.80;1.70;;;19.40;44.20;;;;;;5058313;28;20558;-56
2022/04/25 07:45:14;;;;;;;1.93;1.83;;;19.40;44.20;;;;;;5062694;28;20493;-56
2022/04/25 07:47:42;;;;;;;1.83;1.73;;;19.40;44.20;;;;;;5063963;28;20233;-56
2022/04/25 07:50:09;;;;;;;2.07;1.97;;;19.40;44.20;;;;;;5063482;28;20244;-56
2022/04/25 07:52:35;;;;;;;1.80;1.70;;;19.40;44.20;;;;;;5057713;28;20418;-56
2022/04/25 07:55:01;;;;;;;1.93;1.83;;;19.40;44.20;;;;;;5061262;28;20438;-56
2022/04/25 07:57:26;;;;;;;2.00;1.90;;;19.40;44.20;;;;;;5062209;28;20232;-56
2022/04/25 07:59:52;;;;;;;2.20;2.10;;;19.40;44.30;;;;;;5062664;28;20211;-58
2022/04/25 08:02:18;;;;;;;1.60;1.50;;;19.40;44.20;;;;;;5062610;28;20226;-57
2022/04/25 08:04:48;;;;;;;1.83;1.73;;;19.40;44.20;;;;;;5058949;28;20226;-59
2022/04/25 08:07:13;;;;;;;2.17;2.07;;;19.40;44.20;;;;;;5061382;28;21158;-56
2022/04/25 08:09:40;;;;;;;2.30;2.20;;;19.40;44.20;;;;;;5060560;28;20473;-55
2022/04/25 08:20:18;;;;;;;2.43;2.00;;;19.40;44.20;;;;;;5059113;28;20811;-55
2022/04/25 08:22:45;;;;;;;2.47;2.27;;;19.40;44.20;;;;;;5064917;28;20421;-55
2022/04/25 08:25:11;;;;;;;4.97;2.30;;;19.40;44.20;;;;;;5061756;28;20217;-56
2022/04/25 08:27:37;;;;;;;2.30;2.10;;;19.40;44.20;;;;;;5060181;28;20498;-57
2022/04/25 08:30:03;;;;;;;1.90;1.80;;;19.40;44.20;;;;;;5057996;28;20909;-56
2022/04/25 08:32:33;;;;;;;1.90;1.80;;;19.40;44.20;;;;;;5063294;28;20656;-56
2022/04/25 08:35:00;;;;;;;1.90;1.80;;;19.40;44.10;;;;;;5059369;28;20624;-55
2022/04/25 08:37:25;;;;;;;2.90;2.53;;;19.40;44.20;;;;;;5056530;28;20450;-56
2022/04/25 08:39:51;;;;;;;2.00;1.90;;;19.40;44.20;;;;;;5065142;28;20459;-55
2022/04/25 08:42:18;;;;;;;2.30;2.10;;;19.40;44.20;;;;;;5062393;28;20213;-56
2022/04/25 08:44:44;;;;;;;2.40;2.20;;;19.40;44.20;;;;;;5059661;28;20309;-56
2022/04/25 08:47:14;;;;;;;2.30;2.20;;;19.40;44.90;;;;;;5063599;28;20470;-56
2022/04/25 08:49:40;;;;;;;2.30;2.20;;;19.40;44.20;;;;;;5060768;28;20454;-55
2022/04/25 08:52:07;;;;;;;2.20;2.10;;;19.40;44.10;;;;;;5060629;28;20865;-55
2022/04/25 08:54:33;;;;;;;2.07;1.97;;;19.40;44.20;;;;;;5059278;28;20660;-57
2022/04/25 08:57:00;;;;;;;2.23;2.13;;;19.40;44.20;;;;;;5061298;28;20500;-55
2022/04/25 08:59:26;;;;;;;2.53;2.43;;;19.40;44.20;;;;;;5061013;28;20504;-55
2022/04/25 09:01:53;;;;;;;4.87;2.10;;;19.40;44.20;;;;;;5062282;28;20437;-58
2022/04/25 09:04:19;;;;;;;2.27;2.17;;;19.40;44.20;;;;;;5062388;28;20559;-56
2022/04/25 09:06:47;;;;;;;2.37;2.27;;;19.40;44.20;;;;;;5041478;28;20529;-56
2022/04/25 09:09:13;;;;;;;2.10;2.00;;;19.40;44.10;;;;;;5038723;28;21029;-57
2022/04/25 09:14:24;;;;;;;2.03;1.93;;;19.40;44.20;;;;;;5057346;28;20546;-55
2022/04/25 09:16:50;;;;;;;1.97;1.87;;;19.40;44.90;;;;;;5061662;28;20493;-56
2022/04/25 09:19:16;;;;;;;2.37;2.27;;;19.40;44.20;;;;;;5065310;28;20507;-56
2022/04/25 09:21:44;;;;;;;2.33;2.23;;;19.40;44.20;;;;;;5063098;28;20425;-55
2022/04/25 09:24:26;;;;;;;2.97;2.30;;;19.40;44.90;;;;;;5059593;28;20252;-57
2022/04/25 09:27:07;;;;;;;2.43;2.23;;;19.30;44.10;;;;;;5059206;28;20548;-56
2022/04/25 09:29:34;;;;;;;2.57;2.47;;;19.30;44.10;;;;;;5056873;28;20447;-56
2022/04/25 09:32:00;;;;;;;2.23;2.13;;;19.30;44.00;;;;;;5057444;28;20439;-55
2022/04/25 09:37:13;;;;;;;2.50;2.30;;;19.30;44.00;;;;;;5061224;28;20473;-56
2022/04/25 09:39:39;;;;;;;2.10;2.00;;;19.30;44.10;;;;;;5067674;28;20447;-56
2022/04/25 09:42:06;;;;;;;2.37;2.20;;;19.30;44.10;;;;;;5064482;28;20440;-56
2022/04/25 09:44:55;;;;;;;2.53;2.33;;;19.30;44.10;;;;;;5060699;28;20237;-56
2022/04/25 09:47:47;;;;;;;2.27;2.17;;;19.30;44.10;;;;;;5065842;28;20470;-55
2022/04/25 09:50:14;;;;;;;2.23;2.13;;;19.30;44.10;;;;;;5057706;28;21998;-56
2022/04/25 09:53:02;;;;;;;2.57;2.37;;;19.30;44.00;;;;;;5063871;28;20454;-55
2022/04/25 09:55:32;;;;;;;2.30;2.20;;;19.30;44.10;;;;;;5061264;28;20536;-57
2022/04/25 09:57:58;;;;;;;2.40;2.30;;;19.30;44.10;;;;;;5060904;28;20438;-56
2022/04/25 10:00:33;;;;;;;2.27;2.17;;;19.30;44.00;;;;;;5062666;28;20432;-56
2022/04/25 10:03:00;;;;;;;2.60;2.50;;;19.30;44.10;;;;;;5059551;28;20226;-56
2022/04/25 10:05:35;;;;;;;2.80;2.60;;;19.30;44.10;;;;;;5058785;28;20816;-56
2022/04/25 10:08:01;;;;;;;2.20;2.10;;;19.30;44.00;;;;;;5061484;28;20444;-57
2022/04/25 10:10:27;;;;;;;2.77;2.67;;;19.30;44.10;;;;;;5061643;28;20451;-55
2022/04/25 10:12:55;;;;;;;2.70;2.60;;;19.30;44.10;;;;;;5064000;28;20229;-56
2022/04/25 10:15:21;;;;;;;2.60;2.50;;;19.30;44.10;;;;;;5061327;28;20795;-55
2022/04/25 10:17:47;;;;;;;3.33;2.87;;;19.30;44.10;;;;;;5066792;28;20452;-56
2022/04/25 10:20:14;;;;;;;2.63;2.50;;;19.30;44.10;;;;;;5062832;28;20440;-58
2022/04/25 10:22:41;;;;;;;3.03;2.83;;;19.30;44.00;;;;;;5063859;28;20267;-55
2022/04/25 10:25:07;;;;;;;2.63;2.53;;;19.30;44.10;;;;;;5064736;28;20835;-56
2022/04/25 10:27:35;;;;;;;2.60;2.50;;;19.30;44.10;;;;;;5059777;28;20463;-56
2022/04/25 10:30:16;;;;;;;2.70;2.50;;;19.30;44.10;;;;;;5066049;28;20222;-57
2022/04/25 10:32:42;;;;;;;2.40;2.20;;;19.30;44.10;;;;;;5064476;28;20459;-58
2022/04/25 10:35:29;;;;;;;2.87;2.73;;;19.30;44.10;;;;;;5062550;28;20758;-56
2022/04/25 10:37:55;;;;;;;3.00;2.80;;;19.30;44.00;;;;;;5060868;28;20964;-57
2022/04/25 10:46:13;;;;;;;2.40;2.30;;;19.30;44.10;;;;;;5065453;28;20846;-56
2022/04/25 10:49:02;;;;;;;2.93;2.73;;;19.30;44.10;;;;;;5061776;28;20463;-56
2022/04/25 10:51:37;;;;;;;2.70;2.50;;;19.30;44.10;;;;;;5063491;28;20682;-57
2022/04/25 10:54:05;;;;;;;2.80;2.60;;;19.20;44.00;;;;;;5063351;28;20941;-57
2022/04/25 10:56:32;;;;;;;3.97;2.73;;;19.30;44.00;;;;;;5065063;28;20443;-56
2022/04/25 10:59:24;;;;;;;3.00;2.80;;;19.20;44.00;;;;;;5061705;28;20422;-56
2022/04/25 11:01:51;;;;;;;2.70;2.60;;;19.20;44.00;;;;;;5058782;28;20474;-57
2022/04/25 11:04:18;;;;;;;3.10;2.90;;;19.20;43.90;;;;;;5060625;28;20466;-57
2022/04/25 11:06:44;;;;;;;3.10;2.93;;;19.20;44.30;;;;;;5064013;28;20493;-56
2022/04/25 11:09:10;;;;;;;3.13;2.73;;;19.20;44.00;;;;;;5064657;28;20450;-57
2022/04/25 11:11:54;;;;;;;3.43;3.23;;;19.20;43.90;;;;;;5061572;28;20222;-56
2022/04/25 11:14:19;;;;;;;2.97;2.77;;;19.20;43.90;;;;;;5063553;28;20214;-55
2022/04/25 11:17:11;;;;;;;2.40;2.30;;;19.20;44.00;;;;;;5065236;28;20433;-56
2022/04/25 11:19:51;;;;;;;3.10;2.90;;;19.20;44.00;;;;;;5065836;28;20275;-56
2022/04/25 11:22:31;;;;;;;3.13;2.93;;;19.20;44.00;;;;;;5062589;28;20458;-58
2022/04/25 11:25:17;;;;;;;2.87;2.67;;;19.20;43.90;;;;;;5059320;28;20889;-59
2022/04/25 11:28:04;;;;;;;2.80;2.70;;;19.20;44.00;;;;;;5040669;28;20472;-56
2022/04/25 11:30:31;;;;;;;2.50;2.40;;;19.20;43.90;;;;;;5065096;28;20432;-56
2022/04/25 11:33:06;;;;;;;3.27;3.07;;;19.20;44.00;;;;;;5064500;28;20544;-57
2022/04/25 11:35:33;;;;;;;2.70;2.57;;;19.20;43.90;;;;;;5060475;28;20875;-57
2022/04/25 11:37:59;;;;;;;2.80;2.70;;;19.20;44.00;;;;;;5066923;28;20435;-55
2022/04/25 11:40:26;;;;;;;3.33;3.13;;;19.20;44.00;;;;;;5060539;28;20572;-56
2022/04/25 11:42:53;;;;;;;4.10;3.00;;;19.20;43.90;;;;;;5059052;28;20226;-55
2022/04/25 11:45:19;;;;;;;2.77;2.67;;;19.20;44.00;;;;;;5059759;28;20447;-57
2022/04/25 11:47:45;;;;;;;2.80;2.60;;;19.20;44.00;;;;;;5062624;28;20474;-57
2022/04/25 11:50:11;;;;;;;3.40;3.20;;;19.20;44.00;;;;;;5062055;28;20410;-56
2022/04/25 11:52:48;;;;;;;2.70;2.60;;;19.20;44.00;;;;;;5065386;28;20228;-56
2022/04/25 11:55:15;;;;;;;3.17;2.97;;;19.20;44.00;;;;;;5061634;28;20482;-55
2022/04/25 11:57:42;;;;;;;3.60;3.40;;;19.20;44.00;;;;;;5057021;28;20456;-56
2022/04/25 12:00:12;;;;;;;2.90;2.80;;;19.20;44.00;;;;;;5058966;28;20824;-56
2022/04/25 12:02:38;;;;;;;3.30;3.20;;;19.20;44.00;;;;;;5062635;28;20441;-56
2022/04/25 12:05:07;;;;;;;3.50;3.30;;;19.20;44.00;;;;;;5063322;28;20446;-56
2022/04/25 12:07:34;;;;;;;3.23;3.03;;;19.20;44.00;;;;;;5064966;28;20962;-56
2022/04/25 12:15:40;;;;;;;3.63;3.43;;;19.20;44.00;;;;;;5060417;28;20432;-56
2022/04/25 12:18:18;;;;;;;3.40;3.20;;;19.20;43.90;;;;;;5058138;28;20447;-56
2022/04/25 12:20:51;;;;;;;3.47;3.30;;;19.20;44.00;;;;;;5060801;28;20461;-56
2022/04/25 12:23:22;;;;;;;3.27;3.07;;;19.20;44.00;;;;;;5063800;28;20473;-58
2022/04/25 12:25:48;;;;;;;3.90;3.70;;;19.20;44.00;;;;;;5053066;28;20455;-56
2022/04/25 12:28:14;;;;;;;3.27;3.07;;;19.20;44.70;;;;;;5065286;28;20429;-56
2022/04/25 12:30:54;;;;;;;3.57;3.37;;;19.20;44.00;;;;;;5061393;28;20455;-56
2022/04/25 12:33:35;;;;;;;3.47;3.27;;;19.20;43.90;;;;;;5060525;28;20308;-56
2022/04/25 12:36:21;;;;;;;3.50;3.30;;;19.20;44.00;;;;;;5057499;28;20500;-56
2022/04/25 12:38:50;;;;;;;4.13;3.93;;;19.20;44.00;;;;;;5060432;28;20527;-59
2022/04/25 12:41:23;;;;;;;4.37;4.07;;;19.20;44.00;;;;;;5054063;28;20470;-57
2022/04/25 12:43:50;;;;;;;3.30;3.10;;;19.10;43.90;;;;;;5066656;28;20421;-57
2022/04/25 12:46:35;;;;;;;3.80;3.60;;;19.20;44.00;;;;;;5057180;28;21006;-57
2022/04/25 12:49:08;;;;;;;3.17;2.97;;;19.20;44.00;;;;;;5053816;28;20456;-56
2022/04/25 12:51:38;;;;;;;3.40;3.20;;;19.10;43.90;;;;;;5060630;28;20442;-56
2022/04/25 12:54:26;;;;;;;4.10;3.90;;;19.10;44.00;;;;;;5064356;28;20492;-57
2022/04/25 12:57:16;;;;;;;3.83;3.63;;;19.10;43.90;;;;;;5054587;28;20811;-56
2022/04/25 12:59:48;;;;;;;4.00;3.80;;;19.10;43.90;;;;;;5030738;28;20429;-56
2022/04/25 13:02:17;;;;;;;3.43;3.23;;;19.10;43.80;;;;;;5002064;28;20460;-56
2022/04/25 13:04:55;;;;;;;4.03;3.83;;;19.10;43.90;;;;;;5028215;28;20455;-57
2022/04/25 13:07:28;;;;;;;3.27;3.07;;;19.10;43.90;;;;;;5031265;28;20503;-61
2022/04/25 13:09:58;;;;;;;4.60;4.30;;;19.10;43.90;;;;;;5031707;28;20508;-58
2022/04/25 13:12:40;;;;;;;3.73;3.53;;;19.10;43.90;;;;;;5044387;28;20458;-61
2022/04/25 13:15:08;;;;;;;3.70;3.50;;;19.10;43.90;;;;;;5033208;28;20472;-57
2022/04/25 13:17:36;;;;;;;3.90;3.70;;;19.10;44.30;;;;;;5058256;28;20425;-56
2022/04/25 13:20:03;;;;;;;3.90;3.70;;;19.10;43.90;;;;;;5047903;28;20424;-58
2022/04/25 13:22:28;;;;;;;4.33;4.13;;;19.10;43.90;;;;;;5051366;28;20865;-56
2022/04/25 13:24:54;;;;;;;4.07;3.87;;;19.10;43.90;;;;;;5026638;28;20448;-56
2022/04/25 13:27:21;;;;;;;4.50;4.27;;;19.10;43.90;;;;;;5065423;28;20232;-57
2022/04/25 13:29:47;;;;;;;4.13;3.83;;;19.10;43.90;;;;;;5054475;28;20218;-57
2022/04/25 13:32:13;;;;;;;4.30;4.00;;;19.10;43.90;;;;;;5055425;28;20454;-57
2022/04/25 13:34:39;;;;;;;4.90;4.70;;;19.10;43.90;;;;;;5056030;28;20218;-58